DAL1881 KMSN-KMSP
Flight info
| Callsign | DAL1881 |
|---|---|
| Flight time | 0h 48m |
| Altitude | 32000 |
| Route | DCT OOPEE BLUEM5 |
| Aircraft | A320/M-SDE3FGHIRWY/LB1 |
Departure
| Time | 2026-04-25 01:07 |
|---|---|
| Airport | Dane County Regional Truax Field (KMSN) |
Arrival
| Time | 2026-04-25 01:55 |
|---|---|
| Airport | Minneapolis–Saint Paul International Airport / Wold–Chamberlain Field (KMSP) |
| Time | Latitude | Longitude | Altitude | Speed | Heading |
|---|---|---|---|---|---|
| 2026-04-25 00:29 | 43.13470 | -89.34467 | 902 ft | 0 kts | 267° |
| 2026-04-25 00:58 | 43.13470 | -89.34454 | 857 ft | 2 kts | 245° |
| 2026-04-25 00:58 | 43.13479 | -89.34439 | 853 ft | 0 kts | 186° |
| 2026-04-25 00:58 | 43.13476 | -89.34440 | 855 ft | 1 kts | 186° |
| 2026-04-25 00:58 | 43.13475 | -89.34440 | 855 ft | 0 kts | 186° |
| 2026-04-25 01:01 | 43.13473 | -89.34440 | 856 ft | 3 kts | 186° |
| 2026-04-25 01:02 | 43.13423 | -89.34417 | 851 ft | 9 kts | 149° |
| 2026-04-25 01:02 | 43.13365 | -89.34383 | 856 ft | 9 kts | 178° |
| 2026-04-25 01:02 | 43.13310 | -89.34397 | 859 ft | 9 kts | 187° |
| 2026-04-25 01:02 | 43.13218 | -89.34412 | 868 ft | 13 kts | 188° |
| 2026-04-25 01:03 | 43.13138 | -89.34427 | 870 ft | 11 kts | 188° |
| 2026-04-25 01:03 | 43.13049 | -89.34442 | 870 ft | 15 kts | 185° |
| 2026-04-25 01:03 | 43.13033 | -89.34444 | 870 ft | 0 kts | 184° |
| 2026-04-25 01:03 | 43.12999 | -89.34448 | 869 ft | 11 kts | 184° |
| 2026-04-25 01:04 | 43.12925 | -89.34455 | 870 ft | 10 kts | 183° |
| 2026-04-25 01:04 | 43.12863 | -89.34456 | 871 ft | 8 kts | 180° |
| 2026-04-25 01:04 | 43.12814 | -89.34456 | 871 ft | 7 kts | 180° |
| 2026-04-25 01:04 | 43.12702 | -89.34459 | 869 ft | 20 kts | 181° |
| 2026-04-25 01:05 | 43.12591 | -89.34465 | 856 ft | 13 kts | 182° |
| 2026-04-25 01:05 | 43.12483 | -89.34453 | 853 ft | 16 kts | 149° |
| 2026-04-25 01:05 | 43.12461 | -89.34319 | 863 ft | 15 kts | 92° |
| 2026-04-25 01:05 | 43.12511 | -89.34207 | 860 ft | 15 kts | 4° |
| 2026-04-25 01:06 | 43.12612 | -89.34209 | 868 ft | 16 kts | 0° |
| 2026-04-25 01:06 | 43.12937 | -89.34195 | 871 ft | 86 kts | 2° |
| 2026-04-25 01:06 | 43.13777 | -89.34162 | 870 ft | 152 kts | 358° |
| 2026-04-25 01:06 | 43.14881 | -89.34100 | 1360 ft | 169 kts | 359° |
| 2026-04-25 01:07 | 43.16126 | -89.34038 | 2012 ft | 184 kts | 359° |
| 2026-04-25 01:07 | 43.17434 | -89.33981 | 2739 ft | 193 kts | 359° |
| 2026-04-25 01:07 | 43.18780 | -89.33917 | 3485 ft | 194 kts | 359° |
| 2026-04-25 01:07 | 43.20140 | -89.34179 | 4040 ft | 208 kts | 332° |
| 2026-04-25 01:08 | 43.21227 | -89.35613 | 4512 ft | 233 kts | 297° |
| 2026-04-25 01:08 | 43.21613 | -89.37883 | 5165 ft | 254 kts | 279° |
| 2026-04-25 01:08 | 43.21820 | -89.40313 | 6164 ft | 259 kts | 278° |
| 2026-04-25 01:08 | 43.22018 | -89.42788 | 7180 ft | 263 kts | 277° |
| 2026-04-25 01:09 | 43.22221 | -89.45288 | 8220 ft | 263 kts | 277° |
| 2026-04-25 01:09 | 43.22422 | -89.47689 | 9755 ft | 242 kts | 277° |
| 2026-04-25 01:09 | 43.22616 | -89.49952 | 10785 ft | 245 kts | 277° |
| 2026-04-25 01:09 | 43.22827 | -89.52354 | 11209 ft | 268 kts | 277° |
| 2026-04-25 01:10 | 43.23061 | -89.55010 | 11575 ft | 292 kts | 277° |
| 2026-04-25 01:10 | 43.23314 | -89.57894 | 11922 ft | 315 kts | 277° |
| 2026-04-25 01:10 | 43.23581 | -89.60933 | 12605 ft | 325 kts | 277° |
| 2026-04-25 01:10 | 43.23852 | -89.64023 | 13494 ft | 327 kts | 277° |
| 2026-04-25 01:11 | 43.24122 | -89.67128 | 14305 ft | 330 kts | 276° |
| 2026-04-25 01:11 | 43.24392 | -89.70269 | 15048 ft | 334 kts | 276° |
| 2026-04-25 01:11 | 43.24665 | -89.73456 | 15741 ft | 339 kts | 275° |
| 2026-04-25 01:11 | 43.24943 | -89.76695 | 16433 ft | 344 kts | 275° |
| 2026-04-25 01:12 | 43.25225 | -89.79983 | 17115 ft | 349 kts | 275° |
| 2026-04-25 01:12 | 43.25509 | -89.83317 | 17779 ft | 355 kts | 275° |
| 2026-04-25 01:12 | 43.25797 | -89.86706 | 18399 ft | 360 kts | 274° |
| 2026-04-25 01:12 | 43.26090 | -89.90147 | 19010 ft | 364 kts | 274° |
| 2026-04-25 01:13 | 43.26387 | -89.93618 | 19628 ft | 368 kts | 274° |
| 2026-04-25 01:13 | 43.26684 | -89.97122 | 20245 ft | 372 kts | 274° |
| 2026-04-25 01:13 | 43.26976 | -90.00621 | 20875 ft | 376 kts | 274° |
| 2026-04-25 01:13 | 43.27274 | -90.04209 | 21502 ft | 379 kts | 274° |
| 2026-04-25 01:14 | 43.27575 | -90.07825 | 22132 ft | 383 kts | 274° |
| 2026-04-25 01:14 | 43.27880 | -90.11474 | 22735 ft | 386 kts | 274° |
| 2026-04-25 01:14 | 43.28185 | -90.15153 | 23326 ft | 390 kts | 274° |
| 2026-04-25 01:14 | 43.28491 | -90.18876 | 23813 ft | 393 kts | 274° |
| 2026-04-25 01:15 | 43.28796 | -90.22617 | 24318 ft | 395 kts | 273° |
| 2026-04-25 01:15 | 43.29102 | -90.26365 | 24825 ft | 396 kts | 272° |
| 2026-04-25 01:15 | 43.29407 | -90.30130 | 25315 ft | 397 kts | 272° |
| 2026-04-25 01:15 | 43.29712 | -90.33908 | 25800 ft | 398 kts | 272° |
| 2026-04-25 01:16 | 43.30013 | -90.37641 | 26274 ft | 400 kts | 271° |
| 2026-04-25 01:16 | 43.30320 | -90.41486 | 26816 ft | 400 kts | 271° |
| 2026-04-25 01:16 | 43.30625 | -90.45280 | 27332 ft | 400 kts | 271° |
| 2026-04-25 01:16 | 43.30930 | -90.49079 | 27808 ft | 401 kts | 271° |
| 2026-04-25 01:17 | 43.31234 | -90.52889 | 28281 ft | 402 kts | 270° |
| 2026-04-25 01:17 | 43.31532 | -90.56660 | 28703 ft | 403 kts | 270° |
| 2026-04-25 01:17 | 43.31834 | -90.60490 | 29120 ft | 403 kts | 270° |
| 2026-04-25 01:17 | 43.32132 | -90.64329 | 29548 ft | 404 kts | 269° |
| 2026-04-25 01:18 | 43.32428 | -90.68168 | 29968 ft | 404 kts | 269° |
| 2026-04-25 01:18 | 43.32725 | -90.72015 | 30326 ft | 404 kts | 269° |
| 2026-04-25 01:18 | 43.33022 | -90.75853 | 30687 ft | 405 kts | 269° |
| 2026-04-25 01:18 | 43.33319 | -90.79701 | 31103 ft | 405 kts | 269° |
| 2026-04-25 01:19 | 43.33619 | -90.83550 | 31472 ft | 405 kts | 269° |
| 2026-04-25 01:19 | 43.33915 | -90.87349 | 31845 ft | 405 kts | 269° |
| 2026-04-25 01:19 | 43.34211 | -90.91179 | 32225 ft | 402 kts | 269° |
| 2026-04-25 01:19 | 43.34500 | -90.94990 | 32618 ft | 400 kts | 269° |
| 2026-04-25 01:20 | 43.34783 | -90.98791 | 33014 ft | 400 kts | 269° |
| 2026-04-25 01:20 | 43.35064 | -91.02593 | 33415 ft | 400 kts | 268° |
| 2026-04-25 01:20 | 43.35346 | -91.06393 | 33824 ft | 400 kts | 268° |
| 2026-04-25 01:20 | 43.35627 | -91.10199 | 34180 ft | 400 kts | 268° |
| 2026-04-25 01:21 | 43.35908 | -91.14006 | 34531 ft | 400 kts | 268° |
| 2026-04-25 01:21 | 43.36187 | -91.17813 | 34918 ft | 399 kts | 269° |
| 2026-04-25 01:21 | 43.36468 | -91.21600 | 35277 ft | 398 kts | 269° |
| 2026-04-25 01:21 | 43.36749 | -91.25383 | 35651 ft | 397 kts | 269° |
| 2026-04-25 01:22 | 43.37025 | -91.29146 | 36020 ft | 395 kts | 269° |
| 2026-04-25 01:22 | 43.37296 | -91.32895 | 36407 ft | 393 kts | 269° |
| 2026-04-25 01:22 | 43.37562 | -91.36637 | 36781 ft | 391 kts | 269° |
| 2026-04-25 01:22 | 43.37824 | -91.40352 | 37175 ft | 390 kts | 269° |
| 2026-04-25 01:23 | 43.38082 | -91.44002 | 37564 ft | 387 kts | 269° |
| 2026-04-25 01:23 | 43.38342 | -91.47678 | 37817 ft | 387 kts | 269° |
| 2026-04-25 01:23 | 43.38600 | -91.51387 | 36790 ft | 394 kts | 269° |
| 2026-04-25 01:23 | 43.38860 | -91.55211 | 35064 ft | 408 kts | 269° |
| 2026-04-25 01:24 | 43.39128 | -91.59149 | 33285 ft | 418 kts | 269° |
| 2026-04-25 01:24 | 43.39407 | -91.63139 | 31432 ft | 422 kts | 270° |
| 2026-04-25 01:24 | 43.39690 | -91.67129 | 30370 ft | 412 kts | 271° |
| 2026-04-25 01:24 | 43.39964 | -91.70920 | 30190 ft | 383 kts | 271° |
| 2026-04-25 01:25 | 43.40222 | -91.74446 | 30112 ft | 365 kts | 271° |
| 2026-04-25 01:25 | 43.40698 | -91.81499 | 29952 ft | 372 kts | 271° |
| 2026-04-25 01:26 | 43.41164 | -91.88576 | 29774 ft | 371 kts | 271° |
| 2026-04-25 01:26 | 43.41632 | -91.95665 | 29621 ft | 375 kts | 272° |
| 2026-04-25 01:27 | 43.42098 | -92.02826 | 29433 ft | 376 kts | 272° |
| 2026-04-25 01:27 | 43.42570 | -92.09945 | 29247 ft | 375 kts | 272° |
| 2026-04-25 01:28 | 43.43043 | -92.17076 | 29068 ft | 374 kts | 272° |
| 2026-04-25 01:28 | 43.43272 | -92.20633 | 28975 ft | 373 kts | 272° |
| 2026-04-25 01:28 | 43.43725 | -92.27731 | 28792 ft | 372 kts | 272° |
| 2026-04-25 01:29 | 43.44171 | -92.34803 | 28629 ft | 370 kts | 272° |
| 2026-04-25 01:29 | 43.44606 | -92.41843 | 28437 ft | 368 kts | 272° |
| 2026-04-25 01:30 | 43.45039 | -92.48855 | 28270 ft | 367 kts | 272° |
| 2026-04-25 01:30 | 43.45471 | -92.55852 | 28096 ft | 366 kts | 272° |
| 2026-04-25 01:31 | 43.45901 | -92.62867 | 27923 ft | 366 kts | 272° |
| 2026-04-25 01:31 | 43.46109 | -92.66309 | 27834 ft | 365 kts | 272° |
| 2026-04-25 01:31 | 43.46318 | -92.69777 | 27764 ft | 363 kts | 272° |
| 2026-04-25 01:32 | 43.46522 | -92.73228 | 27678 ft | 361 kts | 272° |
| 2026-04-25 01:32 | 43.46724 | -92.76665 | 27597 ft | 360 kts | 272° |
| 2026-04-25 01:32 | 43.46928 | -92.80146 | 27510 ft | 359 kts | 272° |
| 2026-04-25 01:32 | 43.47126 | -92.83523 | 27426 ft | 359 kts | 272° |
| 2026-04-25 01:33 | 43.47326 | -92.86939 | 27342 ft | 358 kts | 272° |
| 2026-04-25 01:33 | 43.47527 | -92.90395 | 27258 ft | 357 kts | 272° |
| 2026-04-25 01:33 | 43.47723 | -92.93759 | 27176 ft | 357 kts | 272° |
| 2026-04-25 01:33 | 43.47922 | -92.97159 | 27102 ft | 356 kts | 272° |
| 2026-04-25 01:34 | 43.48122 | -93.00598 | 27010 ft | 355 kts | 272° |
| 2026-04-25 01:34 | 43.48314 | -93.03941 | 26930 ft | 355 kts | 272° |
| 2026-04-25 01:34 | 43.48506 | -93.07327 | 26871 ft | 353 kts | 272° |
| 2026-04-25 01:34 | 43.48695 | -93.10685 | 26796 ft | 351 kts | 271° |
| 2026-04-25 01:35 | 43.48882 | -93.14032 | 26709 ft | 350 kts | 271° |
| 2026-04-25 01:35 | 43.49067 | -93.17373 | 26629 ft | 349 kts | 271° |
| 2026-04-25 01:35 | 43.49373 | -93.20694 | 26543 ft | 352 kts | 282° |
| 2026-04-25 01:35 | 43.50338 | -93.23816 | 26163 ft | 362 kts | 298° |
| 2026-04-25 01:36 | 43.51419 | -93.25628 | 25779 ft | 378 kts | 312° |
| 2026-04-25 01:36 | 43.54550 | -93.28097 | 25448 ft | 403 kts | 338° |
| 2026-04-25 01:36 | 43.56399 | -93.28525 | 25284 ft | 413 kts | 352° |
| 2026-04-25 01:36 | 43.59296 | -93.28368 | 25052 ft | 417 kts | 358° |
| 2026-04-25 01:37 | 43.62190 | -93.28094 | 24798 ft | 416 kts | 358° |
| 2026-04-25 01:37 | 43.65075 | -93.27794 | 24456 ft | 414 kts | 358° |
| 2026-04-25 01:37 | 43.67945 | -93.27488 | 23804 ft | 413 kts | 358° |
| 2026-04-25 01:37 | 43.71743 | -93.27097 | 22887 ft | 412 kts | 358° |
| 2026-04-25 01:38 | 43.73669 | -93.26906 | 22470 ft | 409 kts | 358° |
| 2026-04-25 01:38 | 43.76501 | -93.26630 | 21863 ft | 407 kts | 358° |
| 2026-04-25 01:38 | 43.79321 | -93.26357 | 21254 ft | 405 kts | 358° |
| 2026-04-25 01:38 | 43.82132 | -93.26085 | 20623 ft | 404 kts | 358° |
| 2026-04-25 01:39 | 43.84933 | -93.25814 | 19986 ft | 404 kts | 358° |
| 2026-04-25 01:39 | 43.87741 | -93.25544 | 19335 ft | 403 kts | 358° |
| 2026-04-25 01:39 | 43.90507 | -93.25279 | 18663 ft | 404 kts | 358° |
| 2026-04-25 01:39 | 43.93318 | -93.25008 | 17967 ft | 405 kts | 358° |
| 2026-04-25 01:40 | 43.96103 | -93.24731 | 17558 ft | 397 kts | 358° |
| 2026-04-25 01:40 | 43.98827 | -93.24451 | 17271 ft | 386 kts | 358° |
| 2026-04-25 01:40 | 44.01473 | -93.24164 | 16904 ft | 378 kts | 358° |
| 2026-04-25 01:40 | 44.04081 | -93.23877 | 16427 ft | 374 kts | 358° |
| 2026-04-25 01:41 | 44.06661 | -93.23595 | 15954 ft | 370 kts | 358° |
| 2026-04-25 01:41 | 44.09215 | -93.23318 | 15500 ft | 366 kts | 358° |
| 2026-04-25 01:41 | 44.11748 | -93.23048 | 15038 ft | 363 kts | 357° |
| 2026-04-25 01:41 | 44.14253 | -93.22784 | 14594 ft | 359 kts | 357° |
| 2026-04-25 01:42 | 44.16724 | -93.22522 | 13972 ft | 354 kts | 357° |
| 2026-04-25 01:42 | 44.19166 | -93.22267 | 13295 ft | 348 kts | 356° |
| 2026-04-25 01:42 | 44.21563 | -93.22035 | 12323 ft | 344 kts | 357° |
| 2026-04-25 01:42 | 44.23915 | -93.21821 | 11773 ft | 331 kts | 357° |
| 2026-04-25 01:43 | 44.26150 | -93.21617 | 11315 ft | 322 kts | 357° |
| 2026-04-25 01:43 | 44.28377 | -93.21420 | 10843 ft | 319 kts | 358° |
| 2026-04-25 01:43 | 44.30315 | -93.21260 | 10442 ft | 319 kts | 357° |
| 2026-04-25 01:43 | 44.32513 | -93.21090 | 10188 ft | 313 kts | 357° |
| 2026-04-25 01:44 | 44.34669 | -93.20925 | 9937 ft | 309 kts | 358° |
| 2026-04-25 01:44 | 44.36814 | -93.20760 | 9812 ft | 309 kts | 359° |
| 2026-04-25 01:44 | 44.38947 | -93.20259 | 9695 ft | 312 kts | 8° |
| 2026-04-25 01:44 | 44.41067 | -93.19584 | 9398 ft | 312 kts | 8° |
| 2026-04-25 01:45 | 44.43138 | -93.18642 | 8961 ft | 314 kts | 22° |
| 2026-04-25 01:45 | 44.44972 | -93.17069 | 8620 ft | 306 kts | 34° |
| 2026-04-25 01:45 | 44.46698 | -93.15305 | 8511 ft | 307 kts | 34° |
| 2026-04-25 01:45 | 44.48432 | -93.13570 | 8298 ft | 305 kts | 33° |
| 2026-04-25 01:46 | 44.50159 | -93.11858 | 8103 ft | 303 kts | 33° |
| 2026-04-25 01:46 | 44.51879 | -93.10160 | 7875 ft | 301 kts | 33° |
| 2026-04-25 01:46 | 44.53580 | -93.08475 | 7669 ft | 299 kts | 33° |
| 2026-04-25 01:46 | 44.55268 | -93.06792 | 7456 ft | 296 kts | 33° |
| 2026-04-25 01:47 | 44.56931 | -93.05126 | 7242 ft | 291 kts | 33° |
| 2026-04-25 01:47 | 44.58542 | -93.03508 | 7117 ft | 278 kts | 33° |
| 2026-04-25 01:47 | 44.60081 | -93.01962 | 6998 ft | 268 kts | 33° |
| 2026-04-25 01:47 | 44.61572 | -93.00538 | 6988 ft | 253 kts | 27° |
| 2026-04-25 01:48 | 44.63123 | -92.99622 | 6992 ft | 233 kts | 11° |
| 2026-04-25 01:48 | 44.64711 | -92.99335 | 6682 ft | 229 kts | 354° |
| 2026-04-25 01:48 | 44.66300 | -92.99457 | 6369 ft | 228 kts | 353° |
| 2026-04-25 01:48 | 44.67882 | -92.99585 | 6046 ft | 227 kts | 353° |
| 2026-04-25 01:49 | 44.69459 | -92.99711 | 5732 ft | 225 kts | 354° |
| 2026-04-25 01:49 | 44.71014 | -92.99835 | 5440 ft | 222 kts | 354° |
| 2026-04-25 01:49 | 44.72544 | -92.99960 | 5149 ft | 219 kts | 355° |
| 2026-04-25 01:49 | 44.74052 | -93.00083 | 4866 ft | 216 kts | 355° |
| 2026-04-25 01:50 | 44.75544 | -93.00205 | 4580 ft | 213 kts | 355° |
| 2026-04-25 01:50 | 44.77016 | -93.00334 | 4275 ft | 211 kts | 351° |
| 2026-04-25 01:50 | 44.78370 | -93.00921 | 4028 ft | 204 kts | 330° |
| 2026-04-25 01:50 | 44.79471 | -93.02142 | 3789 ft | 200 kts | 310° |
| 2026-04-25 01:51 | 44.80238 | -93.03758 | 3533 ft | 198 kts | 302° |
| 2026-04-25 01:51 | 44.80936 | -93.05362 | 3301 ft | 184 kts | 302° |
| 2026-04-25 01:51 | 44.81574 | -93.06829 | 3037 ft | 166 kts | 303° |
| 2026-04-25 01:51 | 44.82137 | -93.08120 | 2828 ft | 145 kts | 302° |
| 2026-04-25 01:52 | 44.82639 | -93.09273 | 2638 ft | 132 kts | 303° |
| 2026-04-25 01:52 | 44.83111 | -93.10357 | 2465 ft | 127 kts | 303° |
| 2026-04-25 01:52 | 44.83570 | -93.11410 | 2291 ft | 127 kts | 302° |
| 2026-04-25 01:52 | 44.84032 | -93.12473 | 2122 ft | 126 kts | 302° |
| 2026-04-25 01:53 | 44.84488 | -93.13522 | 1957 ft | 127 kts | 302° |
| 2026-04-25 01:53 | 44.84947 | -93.14577 | 1790 ft | 129 kts | 303° |
| 2026-04-25 01:53 | 44.85415 | -93.15655 | 1603 ft | 129 kts | 303° |
| 2026-04-25 01:53 | 44.85879 | -93.16724 | 1424 ft | 128 kts | 302° |
| 2026-04-25 01:54 | 44.86337 | -93.17774 | 1275 ft | 125 kts | 301° |
| 2026-04-25 01:54 | 44.86803 | -93.18808 | 1060 ft | 124 kts | 300° |
| 2026-04-25 01:54 | 44.87240 | -93.19843 | 933 ft | 123 kts | 296° |
| 2026-04-25 01:54 | 44.87680 | -93.20877 | 840 ft | 120 kts | 299° |
| 2026-04-25 01:55 | 44.88035 | -93.21701 | 828 ft | 62 kts | 302° |
| 2026-04-25 01:55 | 44.88131 | -93.21919 | 831 ft | 13 kts | 301° |
| 2026-04-25 01:55 | 44.88229 | -93.22008 | 834 ft | 19 kts | 5° |
| 2026-04-25 01:55 | 44.88333 | -93.21904 | 838 ft | 16 kts | 38° |
| 2026-04-25 01:56 | 44.88411 | -93.21805 | 838 ft | 14 kts | 48° |
| 2026-04-25 01:56 | 44.88475 | -93.21712 | 839 ft | 12 kts | 46° |
| 2026-04-25 01:56 | 44.88477 | -93.21621 | 835 ft | 10 kts | 136° |
| 2026-04-25 01:56 | 44.88435 | -93.21607 | 837 ft | 0 kts | 174° |